createdAt,value
2023-04-18T00:00:29.376Z,6.28
2023-04-18T00:02:59.182Z,7.00
2023-04-18T00:05:28.581Z,6.68
2023-04-18T00:07:56.805Z,7.97
2023-04-18T00:10:25.234Z,5.13
2023-04-18T00:12:53.370Z,8.15
2023-04-18T00:15:21.552Z,9.38
2023-04-18T00:17:51.205Z,7.32
2023-04-18T00:20:19.493Z,6.70
2023-04-18T00:22:47.720Z,5.43
2023-04-18T00:25:16.218Z,8.98
2023-04-18T00:27:44.382Z,5.97
2023-04-18T00:30:13.340Z,8.63
2023-04-18T00:32:41.591Z,6.35
2023-04-18T00:35:11.421Z,7.15
2023-04-18T00:37:39.638Z,4.38
2023-04-18T00:40:08.871Z,6.38
2023-04-18T00:42:37.186Z,6.68
2023-04-18T00:45:06.231Z,5.90
2023-04-18T00:47:34.521Z,7.13
2023-04-18T00:50:03.468Z,5.30
2023-04-18T00:52:35.853Z,5.40
2023-04-18T00:55:05.255Z,6.40
2023-04-18T00:57:33.534Z,6.53
2023-04-18T01:00:03.794Z,5.70
2023-04-18T01:02:32.365Z,5.95
2023-04-18T01:05:00.762Z,7.50
2023-04-18T01:07:30.602Z,6.47
2023-04-18T01:10:00.814Z,4.40
2023-04-18T01:12:29.089Z,4.50
2023-04-18T01:14:57.286Z,5.35
2023-04-18T01:17:28.278Z,3.75
2023-04-18T01:19:56.873Z,6.90
2023-04-18T01:22:25.387Z,5.72
2023-04-18T01:24:54.971Z,3.95
2023-04-18T01:27:23.156Z,7.43
2023-04-18T01:29:51.423Z,6.13
2023-04-18T01:32:20.468Z,7.55
2023-04-18T01:34:48.836Z,5.35
2023-04-18T01:37:17.616Z,7.55
2023-04-18T01:39:45.821Z,4.85
2023-04-18T01:42:15.391Z,5.90
2023-04-18T01:44:45.748Z,6.70
2023-04-18T01:47:14.271Z,6.53
2023-04-18T01:49:46.683Z,4.72
2023-04-18T01:52:15.193Z,5.88
2023-04-18T01:54:43.822Z,7.68
2023-04-18T01:57:12.024Z,9.40
2023-04-18T01:59:41.599Z,5.07
2023-04-18T02:02:11.251Z,7.72
2023-04-18T02:04:39.662Z,6.85
2023-04-18T02:07:07.857Z,4.40
2023-04-18T02:09:37.165Z,5.68
2023-04-18T02:12:05.492Z,5.72
2023-04-18T02:14:37.137Z,8.77
2023-04-18T02:17:06.696Z,5.28
2023-04-18T02:19:34.909Z,9.38
2023-04-18T02:22:03.085Z,5.85
2023-04-18T02:24:32.807Z,5.38
2023-04-18T02:27:01.938Z,6.70
2023-04-18T02:29:30.505Z,6.10
2023-04-18T02:31:59.860Z,7.22
2023-04-18T02:34:29.681Z,6.70
2023-04-18T02:36:57.877Z,13.52
2023-04-18T02:39:26.058Z,8.32
2023-04-18T02:41:54.278Z,9.13
2023-04-18T02:44:26.076Z,12.00
2023-04-18T02:46:54.270Z,9.20
2023-04-18T02:49:22.730Z,6.93
2023-04-18T02:51:55.798Z,9.88
2023-04-18T02:54:24.845Z,10.23
2023-04-18T02:57:13.619Z,9.27
2023-04-18T02:59:55.201Z,11.05
2023-04-18T03:02:41.922Z,10.15
2023-04-18T03:05:26.167Z,8.25
2023-04-18T03:07:58.860Z,10.50
2023-04-18T03:10:27.331Z,10.18
2023-04-18T03:12:55.788Z,9.20
2023-04-18T03:15:24.157Z,9.45
2023-04-18T03:17:53.829Z,10.27
2023-04-18T03:20:24.186Z,8.43
2023-04-18T03:22:53.577Z,9.68
2023-04-18T03:25:27.045Z,10.10
2023-04-18T03:27:55.266Z,13.63
2023-04-18T03:30:24.514Z,8.23
2023-04-18T03:32:58.671Z,11.05
2023-04-18T03:35:27.122Z,12.32
2023-04-18T03:37:56.662Z,11.40
2023-04-18T03:40:28.956Z,14.00
2023-04-18T03:43:02.437Z,12.20
2023-04-18T03:45:31.037Z,12.40
2023-04-18T03:47:59.285Z,10.95
2023-04-18T03:50:28.529Z,13.32
2023-04-18T03:52:58.297Z,11.07
2023-04-18T03:55:28.162Z,11.07
2023-04-18T03:57:58.375Z,12.40
2023-04-18T04:00:30.261Z,9.52
2023-04-18T04:03:09.767Z,11.20
2023-04-18T04:05:38.262Z,10.65
2023-04-18T04:08:09.597Z,11.73
2023-04-18T04:10:39.468Z,10.05
2023-04-18T04:13:08.007Z,12.35
2023-04-18T04:15:40.191Z,10.70
2023-04-18T04:18:11.115Z,11.02
2023-04-18T04:20:43.279Z,10.32
2023-04-18T04:23:15.297Z,9.63
2023-04-18T04:25:48.355Z,12.80
2023-04-18T04:28:31.498Z,10.18
2023-04-18T04:31:08.186Z,9.55
2023-04-18T04:33:38.854Z,8.88
2023-04-18T04:36:16.141Z,10.75
2023-04-18T04:38:47.266Z,9.85
2023-04-18T04:41:17.186Z,9.75
2023-04-18T04:43:46.649Z,10.63
2023-04-18T04:46:19.927Z,9.52
2023-04-18T04:48:50.679Z,10.65
2023-04-18T04:51:20.212Z,8.85
2023-04-18T04:53:48.857Z,15.05
2023-04-18T04:56:18.532Z,11.02
2023-04-18T04:58:47.327Z,10.05
2023-04-18T05:01:20.844Z,15.50
2023-04-18T05:03:51.510Z,8.80
2023-04-18T05:06:20.821Z,9.85
2023-04-18T05:08:49.143Z,8.55
2023-04-18T05:11:19.282Z,8.45
2023-04-18T05:13:47.617Z,9.48
2023-04-18T05:16:15.837Z,10.63
2023-04-18T05:18:46.337Z,11.77
2023-04-18T05:21:16.647Z,8.85
2023-04-18T05:23:44.834Z,10.65
2023-04-18T05:26:13.026Z,9.25
2023-04-18T05:28:42.621Z,10.20
2023-04-18T05:31:10.863Z,7.57
2023-04-18T05:33:39.068Z,9.60
2023-04-18T05:36:08.015Z,10.20
2023-04-18T05:38:36.202Z,10.27
2023-04-18T05:41:04.412Z,9.90
2023-04-18T05:43:32.630Z,11.05
2023-04-18T05:46:02.173Z,8.75
2023-04-18T05:48:30.407Z,9.85
2023-04-18T05:50:58.666Z,11.20
2023-04-18T05:53:26.856Z,8.98
2023-04-18T05:55:55.194Z,9.63
2023-04-18T05:58:23.335Z,10.55
2023-04-18T06:00:51.604Z,11.45
2023-04-18T06:03:21.304Z,9.48
2023-04-18T06:05:49.746Z,9.18
2023-04-18T06:08:18.022Z,13.98
2023-04-18T06:10:46.268Z,10.75
2023-04-18T06:13:16.429Z,13.05
2023-04-18T06:15:44.747Z,8.05
2023-04-18T06:18:12.964Z,11.45
2023-04-18T06:20:44.180Z,14.25
2023-04-18T06:23:12.401Z,10.23
2023-04-18T06:25:42.704Z,10.35
2023-04-18T06:28:11.064Z,10.35
2023-04-18T06:30:39.281Z,11.43
2023-04-18T06:33:10.353Z,9.18
2023-04-18T06:35:39.174Z,10.90
2023-04-18T06:38:08.854Z,12.30
2023-04-18T06:40:37.168Z,12.40
2023-04-18T06:43:08.027Z,8.90
2023-04-18T06:45:36.755Z,8.68
2023-04-18T06:48:05.522Z,8.93
2023-04-18T06:50:33.759Z,9.63
2023-04-18T06:53:05.373Z,10.68
2023-04-18T06:55:35.386Z,12.18
2023-04-18T06:58:04.976Z,11.52
2023-04-18T07:00:33.146Z,12.90
2023-04-18T07:03:02.130Z,10.15
2023-04-18T07:05:30.464Z,8.90
2023-04-18T07:07:58.618Z,9.63
2023-04-18T07:10:27.077Z,10.13
2023-04-18T07:12:56.627Z,10.80
2023-04-18T07:15:24.902Z,11.35
2023-04-18T07:17:53.151Z,16.40
2023-04-18T07:20:21.510Z,12.35
2023-04-18T07:22:50.007Z,10.60
2023-04-18T07:25:19.142Z,12.15
2023-04-18T07:27:47.873Z,10.07
2023-04-18T07:30:17.629Z,12.90
2023-04-18T07:32:47.226Z,10.70
2023-04-18T07:35:15.487Z,11.27
2023-04-18T07:37:44.174Z,9.98
2023-04-18T07:40:15.766Z,8.13
2023-04-18T07:42:44.456Z,8.52
2023-04-18T07:45:12.851Z,10.40
2023-04-18T07:47:42.429Z,11.93
2023-04-18T07:50:11.727Z,10.35
2023-04-18T07:52:39.902Z,9.35
2023-04-18T07:55:09.067Z,11.27
2023-04-18T07:57:37.285Z,12.57
2023-04-18T08:00:09.494Z,13.90
2023-04-18T08:02:45.037Z,12.70
2023-04-18T08:05:13.426Z,11.40
2023-04-18T08:07:41.941Z,10.57
2023-04-18T08:10:12.935Z,7.78
2023-04-18T08:12:41.617Z,9.95
2023-04-18T08:15:10.723Z,21.67
2023-04-18T08:17:39.785Z,20.27
2023-04-18T08:20:10.361Z,19.05
2023-04-18T08:22:50.061Z,16.23
2023-04-18T08:25:27.288Z,11.27
2023-04-18T08:27:55.729Z,7.82
2023-04-18T08:30:23.881Z,7.03
2023-04-18T08:32:52.220Z,8.57
2023-04-18T08:35:21.990Z,7.22
2023-04-18T08:37:50.174Z,8.45
2023-04-18T08:40:18.608Z,8.88
2023-04-18T08:42:46.776Z,7.82
2023-04-18T08:45:15.247Z,9.50
2023-04-18T08:47:43.776Z,5.32
2023-04-18T08:50:12.636Z,10.32
2023-04-18T08:52:47.668Z,9.50
2023-04-18T08:55:16.329Z,13.20
2023-04-18T08:57:48.179Z,13.32
2023-04-18T09:00:19.711Z,8.23
2023-04-18T09:02:48.063Z,7.78
2023-04-18T09:05:19.990Z,4.57
2023-04-18T09:07:51.411Z,7.47
2023-04-18T09:10:28.682Z,4.63
2023-04-18T09:12:57.845Z,4.00
2023-04-18T09:15:29.140Z,7.32
2023-04-18T09:17:59.614Z,11.07
2023-04-18T09:20:35.710Z,7.70
2023-04-18T09:23:10.351Z,9.02
2023-04-18T09:25:46.408Z,6.82
2023-04-18T09:28:24.353Z,5.72
2023-04-18T09:30:54.253Z,9.02
2023-04-18T09:33:29.021Z,7.78
2023-04-18T09:36:00.209Z,4.80
2023-04-18T09:38:42.193Z,6.03
2023-04-18T09:41:11.115Z,4.65
2023-04-18T09:43:39.661Z,3.30
2023-04-18T09:46:09.094Z,3.63
2023-04-18T09:48:37.579Z,6.20
2023-04-18T09:51:08.456Z,4.95
2023-04-18T09:53:41.554Z,4.85
2023-04-18T09:56:13.848Z,5.70
2023-04-18T09:58:44.689Z,14.30
2023-04-18T10:01:13.358Z,6.72
2023-04-18T10:03:46.212Z,5.32
2023-04-18T10:06:17.740Z,4.60
2023-04-18T10:08:48.976Z,8.10
2023-04-18T10:11:19.229Z,6.30
2023-04-18T10:13:50.429Z,11.00
2023-04-18T10:16:20.357Z,8.23
2023-04-18T10:18:50.867Z,6.35
2023-04-18T10:21:19.208Z,3.58
2023-04-18T10:23:50.349Z,5.10
2023-04-18T10:26:18.548Z,10.80
2023-04-18T10:28:57.297Z,3.60
2023-04-18T10:31:26.847Z,6.45
2023-04-18T10:34:17.690Z,6.18
2023-04-18T10:37:05.406Z,6.60
2023-04-18T10:39:58.245Z,6.53
2023-04-18T10:43:00.608Z,7.32
2023-04-18T10:45:31.239Z,8.80
2023-04-18T10:48:26.130Z,6.20
2023-04-18T10:51:14.480Z,5.68
2023-04-18T10:53:49.550Z,6.20
2023-04-18T10:56:19.144Z,6.45
2023-04-18T10:58:57.232Z,3.75
2023-04-18T11:01:31.979Z,4.95
2023-04-18T11:04:01.690Z,5.95
2023-04-18T11:06:31.270Z,2.40
2023-04-18T11:09:17.184Z,4.88
2023-04-18T11:12:03.250Z,6.20
2023-04-18T11:14:41.065Z,4.45
2023-04-18T11:17:19.959Z,3.90
2023-04-18T11:19:48.773Z,1.92
2023-04-18T11:22:17.922Z,7.30
2023-04-18T11:24:46.233Z,2.53
2023-04-18T11:27:18.615Z,3.05
2023-04-18T11:29:53.253Z,5.82
2023-04-18T11:32:24.040Z,3.30
2023-04-18T11:34:54.864Z,4.75
2023-04-18T11:37:23.749Z,2.63
2023-04-18T11:39:53.850Z,3.67
2023-04-18T11:42:27.488Z,2.85
2023-04-18T11:44:58.267Z,5.28
2023-04-18T11:47:28.722Z,7.22
2023-04-18T11:49:58.236Z,5.43
2023-04-18T11:52:28.279Z,5.07
2023-04-18T11:55:10.756Z,5.13
2023-04-18T11:57:40.858Z,4.05
2023-04-18T12:00:12.215Z,4.40
2023-04-18T12:02:43.157Z,7.13
2023-04-18T12:05:14.543Z,3.70
2023-04-18T12:07:45.823Z,3.85
2023-04-18T12:10:26.246Z,7.40
2023-04-18T12:12:58.537Z,2.50
2023-04-18T12:15:28.443Z,3.17
2023-04-18T12:18:01.076Z,7.90
2023-04-18T12:20:36.375Z,4.13
2023-04-18T12:23:05.554Z,5.55
2023-04-18T12:25:37.514Z,3.72
2023-04-18T12:28:15.844Z,4.60
2023-04-18T12:30:44.106Z,14.25
2023-04-18T12:33:12.535Z,9.93
2023-04-18T12:35:41.139Z,4.30
2023-04-18T12:38:09.393Z,9.18
2023-04-18T12:40:40.701Z,2.97
2023-04-18T12:43:11.228Z,5.20
2023-04-18T12:45:39.427Z,3.25
2023-04-18T12:48:08.792Z,7.70
2023-04-18T12:50:36.982Z,4.18
2023-04-18T12:53:08.041Z,5.03
2023-04-18T12:55:36.311Z,4.70
2023-04-18T12:58:04.742Z,2.85
2023-04-18T13:00:34.562Z,2.85
2023-04-18T13:03:03.043Z,6.57
2023-04-18T13:05:33.941Z,3.55
2023-04-18T13:08:15.216Z,5.07
2023-04-18T13:10:45.722Z,6.40
2023-04-18T13:13:14.041Z,5.47
2023-04-18T13:15:43.622Z,5.15
2023-04-18T13:18:11.828Z,3.38
2023-04-18T13:20:40.039Z,5.95
2023-04-18T13:23:08.215Z,3.45
2023-04-18T13:25:40.061Z,4.10
2023-04-18T13:28:08.242Z,3.45
2023-04-18T13:30:36.616Z,3.97
2023-04-18T13:33:06.565Z,3.22
2023-04-18T13:35:35.963Z,5.07
2023-04-18T13:38:04.187Z,6.68
2023-04-18T13:40:33.428Z,4.35
2023-04-18T13:43:01.618Z,4.10
2023-04-18T13:45:29.779Z,4.05
2023-04-18T13:47:57.997Z,5.30
2023-04-18T13:50:30.125Z,3.70
2023-04-18T13:52:58.315Z,3.15
2023-04-18T13:55:27.304Z,4.50
2023-04-18T13:57:55.469Z,4.53
2023-04-18T14:00:23.675Z,3.70
2023-04-18T14:02:51.974Z,4.35
2023-04-18T14:05:20.471Z,3.22
2023-04-18T14:07:50.140Z,7.20
2023-04-18T14:10:18.295Z,5.97
2023-04-18T14:12:48.224Z,8.05
2023-04-18T14:15:19.440Z,3.72
2023-04-18T14:17:47.681Z,4.60
2023-04-18T14:20:19.205Z,4.68
2023-04-18T14:22:47.444Z,6.15
2023-04-18T14:25:17.093Z,4.95
2023-04-18T14:27:48.831Z,4.20
2023-04-18T14:30:17.221Z,4.18
2023-04-18T14:32:45.742Z,5.00
2023-04-18T14:35:14.281Z,6.95
2023-04-18T14:37:42.473Z,3.55
2023-04-18T14:40:12.301Z,3.42
2023-04-18T14:42:41.881Z,4.18
2023-04-18T14:45:11.715Z,5.40
2023-04-18T14:47:40.096Z,6.72
2023-04-18T14:50:11.742Z,6.72
2023-04-18T14:52:40.200Z,3.85
2023-04-18T14:55:10.695Z,4.30
2023-04-18T14:57:39.429Z,3.55
2023-04-18T15:00:11.961Z,3.78
2023-04-18T15:02:40.563Z,4.10
2023-04-18T15:05:09.934Z,7.40
2023-04-18T15:07:38.236Z,4.65
2023-04-18T15:10:07.487Z,5.35
2023-04-18T15:12:35.965Z,10.10
2023-04-18T15:15:04.366Z,5.32
2023-04-18T15:17:36.462Z,4.82
2023-04-18T15:20:07.059Z,3.30
2023-04-18T15:22:35.654Z,5.15
2023-04-18T15:25:04.556Z,4.85
2023-04-18T15:27:33.115Z,3.88
2023-04-18T15:30:02.279Z,8.20
2023-04-18T15:32:31.010Z,3.70
2023-04-18T15:35:00.561Z,4.28
2023-04-18T15:37:28.856Z,4.05
2023-04-18T15:39:57.041Z,4.85
2023-04-18T15:42:25.316Z,5.55
2023-04-18T15:44:53.510Z,9.40
2023-04-18T15:47:24.404Z,5.35
2023-04-18T15:49:55.341Z,9.77
2023-04-18T15:52:24.878Z,4.70
2023-04-18T15:54:53.295Z,3.75
2023-04-18T15:57:22.081Z,10.43
2023-04-18T15:59:50.233Z,6.47
2023-04-18T16:02:18.486Z,6.32
2023-04-18T16:04:47.387Z,5.43
2023-04-18T16:07:16.017Z,7.35
2023-04-18T16:09:45.865Z,6.22
2023-04-18T16:12:14.269Z,7.22
2023-04-18T16:14:42.444Z,7.88
2023-04-18T16:17:10.674Z,8.10
2023-04-18T16:19:40.858Z,6.05
2023-04-18T16:22:10.418Z,5.20
2023-04-18T16:24:39.913Z,6.07
2023-04-18T16:27:11.103Z,5.53
2023-04-18T16:29:39.318Z,4.90
2023-04-18T16:32:08.345Z,4.95
2023-04-18T16:34:36.554Z,7.68
2023-04-18T16:37:05.124Z,7.38
2023-04-18T16:39:36.291Z,7.45
2023-04-18T16:42:04.670Z,6.45
2023-04-18T16:44:36.578Z,5.47
2023-04-18T16:47:06.080Z,6.72
2023-04-18T16:49:34.281Z,9.65
2023-04-18T16:52:02.689Z,7.22
2023-04-18T16:54:31.030Z,5.70
2023-04-18T16:56:59.248Z,7.45
2023-04-18T16:59:30.215Z,5.78
2023-04-18T17:02:00.359Z,4.93
2023-04-18T17:04:29.072Z,6.95
2023-04-18T17:06:57.370Z,6.18
2023-04-18T17:09:25.596Z,15.10
2023-04-18T17:11:53.774Z,9.10
2023-04-18T17:14:21.952Z,13.02
2023-04-18T17:16:52.839Z,6.30
2023-04-18T17:19:24.208Z,8.32
2023-04-18T17:21:52.443Z,6.45
2023-04-18T17:24:22.426Z,8.82
2023-04-18T17:26:51.044Z,9.25
2023-04-18T17:29:19.409Z,10.93
2023-04-18T17:31:48.177Z,9.45
2023-04-18T17:34:16.454Z,9.30
2023-04-18T17:36:46.474Z,8.27
2023-04-18T17:39:16.773Z,7.93
2023-04-18T17:41:46.674Z,9.25
2023-04-18T17:44:14.849Z,6.88
2023-04-18T17:46:43.035Z,11.55
2023-04-18T17:49:11.810Z,8.82
2023-04-18T17:51:40.286Z,11.00
2023-04-18T17:54:11.069Z,10.60
2023-04-18T17:56:39.329Z,7.53
2023-04-18T17:59:09.741Z,11.63
2023-04-18T18:01:38.667Z,15.00
2023-04-18T18:04:09.714Z,8.88
2023-04-18T18:06:38.211Z,12.30
2023-04-18T18:09:07.220Z,9.30
2023-04-18T18:11:36.864Z,12.98
2023-04-18T18:14:05.628Z,9.20
2023-04-18T18:16:34.135Z,11.90
2023-04-18T18:19:02.374Z,16.00
2023-04-18T18:21:30.548Z,12.02
2023-04-18T18:23:58.746Z,10.60
2023-04-18T18:26:27.596Z,9.07
2023-04-18T18:28:57.132Z,9.02
2023-04-18T18:31:27.689Z,8.63
2023-04-18T18:33:55.873Z,11.35
2023-04-18T18:36:24.091Z,9.35
2023-04-18T18:38:52.252Z,11.15
2023-04-18T18:41:22.522Z,9.52
2023-04-18T18:43:51.214Z,11.63
2023-04-18T18:46:20.837Z,9.38
2023-04-18T18:48:49.781Z,11.95
2023-04-18T18:51:19.979Z,11.65
2023-04-18T18:53:49.722Z,9.45
2023-04-18T18:56:18.195Z,8.95
2023-04-18T18:58:46.387Z,11.45
2023-04-18T19:01:14.624Z,7.70
2023-04-18T19:03:44.320Z,13.25
2023-04-18T19:06:12.621Z,13.48
2023-04-18T19:08:40.799Z,11.07
2023-04-18T19:11:09.627Z,14.32
2023-04-18T19:13:37.903Z,19.13
2023-04-18T19:16:06.650Z,11.85
2023-04-18T19:18:34.941Z,10.88
2023-04-18T19:21:07.485Z,16.58
2023-04-18T19:23:35.945Z,10.75
2023-04-18T19:26:04.197Z,12.23
2023-04-18T19:28:32.376Z,11.20
2023-04-18T19:31:02.134Z,13.20
2023-04-18T19:33:30.397Z,10.82
2023-04-18T19:35:59.045Z,14.25
2023-04-18T19:38:28.652Z,13.20
2023-04-18T19:40:56.941Z,10.23
2023-04-18T19:43:26.198Z,10.73
2023-04-18T19:45:55.371Z,12.23
2023-04-18T19:48:23.664Z,13.63
2023-04-18T19:50:51.862Z,11.02
2023-04-18T19:53:20.504Z,15.88
2023-04-18T19:55:51.345Z,15.30
2023-04-18T19:58:35.503Z,13.73
2023-04-18T20:01:05.876Z,14.13
2023-04-18T20:03:34.927Z,12.20
2023-04-18T20:06:05.402Z,13.48
2023-04-18T20:08:33.917Z,11.70
2023-04-18T20:11:04.982Z,13.38
2023-04-18T20:13:33.383Z,10.90
2023-04-18T20:16:01.760Z,10.63
2023-04-18T20:18:32.347Z,11.77
2023-04-18T20:21:00.543Z,12.00
2023-04-18T20:23:28.750Z,12.07
2023-04-18T20:25:59.231Z,12.00
2023-04-18T20:28:29.035Z,11.52
2023-04-18T20:30:57.331Z,9.55
2023-04-18T20:33:27.682Z,12.38
2023-04-18T20:35:56.018Z,9.52
2023-04-18T20:38:26.159Z,12.90
2023-04-18T20:40:54.694Z,10.00
2023-04-18T20:43:23.086Z,12.18
2023-04-18T20:45:53.803Z,12.77
2023-04-18T20:48:22.258Z,11.23
2023-04-18T20:50:51.999Z,14.05
2023-04-18T20:53:21.592Z,12.15
2023-04-18T20:55:50.018Z,11.00
2023-04-18T20:58:18.254Z,13.07
2023-04-18T21:00:46.505Z,10.35
2023-04-18T21:03:16.853Z,10.52
2023-04-18T21:05:45.860Z,10.80
2023-04-18T21:08:14.051Z,9.05
2023-04-18T21:10:42.238Z,17.17
2023-04-18T21:13:12.471Z,12.50
2023-04-18T21:15:42.178Z,15.95
2023-04-18T21:18:10.563Z,16.00
2023-04-18T21:20:40.161Z,14.52
2023-04-18T21:23:08.417Z,14.52
2023-04-18T21:25:36.632Z,17.75
2023-04-18T21:28:05.332Z,13.48
2023-04-18T21:30:33.531Z,12.45
2023-04-18T21:33:01.764Z,10.90
2023-04-18T21:35:30.081Z,10.55
2023-04-18T21:37:59.969Z,10.27
2023-04-18T21:40:30.604Z,12.02
2023-04-18T21:42:58.848Z,13.05
2023-04-18T21:45:29.897Z,15.20
2023-04-18T21:47:58.174Z,12.95
2023-04-18T21:50:28.744Z,13.45
2023-04-18T21:52:57.023Z,15.00
2023-04-18T21:55:26.705Z,12.52
2023-04-18T21:57:57.267Z,15.25
2023-04-18T22:00:25.588Z,14.73
2023-04-18T22:02:53.867Z,14.85
2023-04-18T22:05:22.189Z,11.48
2023-04-18T22:07:58.063Z,12.70
2023-04-18T22:10:28.169Z,12.32
2023-04-18T22:12:56.401Z,13.10
2023-04-18T22:15:26.934Z,14.63
2023-04-18T22:17:55.449Z,14.70
2023-04-18T22:20:25.486Z,13.68
2023-04-18T22:22:54.566Z,13.10
2023-04-18T22:25:22.743Z,12.63
2023-04-18T22:27:52.275Z,12.63
2023-04-18T22:30:20.561Z,14.13
2023-04-18T22:32:48.843Z,13.82
2023-04-18T22:35:17.156Z,16.15
2023-04-18T22:37:45.351Z,12.73
2023-04-18T22:40:14.581Z,14.68
2023-04-18T22:42:43.262Z,15.75
2023-04-18T22:45:13.560Z,18.17
2023-04-18T22:47:41.941Z,24.33
2023-04-18T22:50:10.809Z,34.22
2023-04-18T22:52:39.036Z,15.98
2023-04-18T22:55:08.001Z,16.77
2023-04-18T22:57:39.129Z,14.85
2023-04-18T23:00:10.014Z,17.67
2023-04-18T23:02:39.784Z,16.08
2023-04-18T23:05:10.678Z,18.08
2023-04-18T23:07:38.902Z,17.02
2023-04-18T23:10:08.480Z,17.75
2023-04-18T23:12:36.656Z,19.05
2023-04-18T23:15:05.817Z,17.67
2023-04-18T23:17:34.783Z,15.25
2023-04-18T23:20:06.746Z,17.10
2023-04-18T23:22:34.921Z,16.67
2023-04-18T23:25:03.223Z,15.52
2023-04-18T23:27:31.415Z,16.85
2023-04-18T23:29:59.684Z,17.50
2023-04-18T23:32:27.876Z,15.30
2023-04-18T23:34:56.071Z,16.33
2023-04-18T23:37:25.698Z,16.63
2023-04-18T23:39:53.875Z,15.85
2023-04-18T23:42:22.050Z,18.13
2023-04-18T23:44:50.454Z,16.60
2023-04-18T23:47:18.700Z,21.58
2023-04-18T23:49:46.919Z,17.27
2023-04-18T23:52:15.224Z,15.77
2023-04-18T23:54:45.042Z,19.65
2023-04-18T23:57:14.240Z,18.73
2023-04-18T23:59:42.428Z,15.07
